Terminal Aerodrome Forecast
Issued by NWS

Home | Current Version | Previous Version | Text Only | Print | Product List | Glossary On
Versions: 1 2 3 4 5 6 7 8 9 10 11 12 13 14 15 16 17 18 19 20 21
000
FTUS46 KSEW 291125
TAFBFI
TAF
KBFI 291125Z 2912/3012 13006KT P6SM -RA SCT025 OVC040
      TEMPO 2912/2916 5SM -RA BR BKN025 OVC040
     FM291800 17012KT P6SM -RA BKN035 OVC050
     FM292100 19012G20KT P6SM -SHRA BKN040 OVC060
     FM300000 19008KT P6SM VCSH SCT040 BKN060 BKN200
     FM300900 17007KT P6SM VCSH OVC030 PROB30 3009/3012 -SHRA=

USA.gov is the U.S. government's official web portal to all federal, state and local government web resources and services.